createdAt,value
2018-04-28T00:01:52.188Z,47.05
2018-04-28T00:04:17.772Z,46.79
2018-04-28T00:06:43.361Z,46.82
2018-04-28T00:09:09.067Z,47.09
2018-04-28T00:11:34.797Z,46.89
2018-04-28T00:14:00.364Z,46.92
2018-04-28T00:16:28.866Z,46.95
2018-04-28T00:18:57.671Z,46.88
2018-04-28T00:21:23.287Z,46.72
2018-04-28T00:23:49.027Z,46.85
2018-04-28T00:26:14.616Z,46.63
2018-04-28T00:28:40.376Z,47.03
2018-04-28T00:31:08.964Z,46.84
2018-04-28T00:33:34.570Z,46.78
2018-04-28T00:36:12.371Z,46.74
2018-04-28T00:38:44.283Z,46.53
2018-04-28T07:06:51.816Z,52.24
2018-04-28T07:09:17.396Z,46.34
2018-04-28T07:11:43.107Z,49.43
2018-04-28T07:14:08.746Z,48.98
2018-04-28T07:16:34.728Z,50.13
2018-04-28T07:19:00.472Z,50.85
2018-04-28T07:21:26.070Z,50.98
2018-04-28T07:23:51.698Z,51.10
2018-04-28T07:26:17.463Z,50.10
2018-04-28T07:28:43.050Z,50.40
2018-04-28T07:31:08.666Z,49.93
2018-04-28T07:33:34.398Z,49.96
2018-04-28T07:36:00.019Z,50.44
2018-04-28T07:38:25.581Z,49.60
2018-04-28T07:40:51.305Z,49.60
2018-04-28T07:43:17.037Z,49.60
2018-04-28T07:45:42.614Z,49.20
2018-04-28T07:48:08.441Z,49.41
2018-04-28T07:50:33.999Z,49.42
2018-04-28T07:52:59.605Z,49.38
2018-04-28T07:55:25.492Z,49.40
2018-04-28T07:57:51.064Z,49.45
2018-04-28T08:00:16.740Z,48.33
2018-04-28T08:02:42.596Z,48.55
2018-04-28T08:05:08.156Z,49.39
2018-04-28T08:07:33.878Z,49.13
2018-04-28T08:09:59.622Z,49.28
2018-04-28T08:12:25.246Z,49.39
2018-04-28T08:14:50.927Z,48.97
2018-04-28T08:17:16.744Z,49.62
2018-04-28T08:19:42.305Z,49.06
2018-04-28T08:22:07.929Z,49.70
2018-04-28T08:24:33.697Z,49.64
2018-04-28T08:26:59.253Z,49.70
2018-04-28T08:29:24.993Z,49.29
2018-04-28T08:31:50.557Z,49.42
2018-04-28T08:34:16.284Z,49.34
2018-04-28T08:36:42.133Z,48.32
2018-04-28T08:39:07.788Z,48.08
2018-04-28T08:41:33.553Z,47.52
2018-04-28T08:43:59.169Z,47.56
2018-04-28T08:46:24.786Z,47.68
2018-04-28T08:48:50.952Z,47.81
2018-04-28T08:51:16.555Z,47.65
2018-04-28T08:53:42.590Z,48.00
2018-04-28T08:56:08.205Z,47.53
2018-04-28T08:58:33.808Z,47.60
2018-04-28T09:01:02.780Z,46.88
2018-04-28T09:03:28.441Z,46.88
2018-04-28T09:05:54.008Z,45.60
2018-04-28T09:08:19.702Z,46.90
2018-04-28T09:10:45.732Z,45.56
2018-04-28T09:13:11.368Z,45.71
2018-04-28T09:15:37.194Z,46.79
2018-04-28T09:18:03.070Z,46.67
2018-04-28T09:20:28.734Z,46.25
2018-04-28T09:22:54.542Z,45.69
2018-04-28T09:25:20.110Z,45.03
2018-04-28T09:27:45.692Z,44.97
2018-04-28T09:30:11.394Z,45.56
2018-04-28T09:32:37.043Z,45.30
2018-04-28T09:35:02.836Z,45.50
2018-04-28T09:37:28.462Z,45.61
2018-04-28T09:39:54.183Z,45.58
2018-04-28T09:42:19.920Z,44.16
2018-04-28T09:44:45.801Z,45.40
2018-04-28T09:47:11.378Z,45.76
2018-04-28T09:49:37.246Z,45.65
2018-04-28T09:52:02.845Z,45.66
2018-04-28T09:54:28.476Z,45.21
2018-04-28T09:56:54.305Z,44.38
2018-04-28T09:59:19.981Z,44.36
2018-04-28T10:01:45.658Z,44.02
2018-04-28T10:04:26.378Z,44.16
2018-04-28T10:06:52.108Z,44.74
2018-04-28T10:09:17.677Z,44.79
2018-04-28T10:11:43.448Z,45.02
2018-04-28T10:14:09.079Z,45.51
2018-04-28T10:16:34.926Z,45.10
2018-04-28T10:19:00.779Z,44.90
2018-04-28T10:21:26.484Z,44.78
2018-04-28T10:23:52.077Z,43.86
2018-04-28T10:26:17.843Z,43.76
2018-04-28T10:28:43.415Z,43.07
2018-04-28T10:31:08.957Z,42.01
2018-04-28T10:33:34.778Z,42.99
2018-04-28T10:36:00.382Z,43.65
2018-04-28T10:38:25.985Z,43.76
2018-04-28T10:40:51.717Z,43.62
2018-04-28T10:43:17.302Z,43.82
2018-04-28T10:45:43.013Z,43.75
2018-04-28T10:48:08.972Z,43.08
2018-04-28T10:50:34.634Z,43.86
2018-04-28T10:53:00.213Z,43.17
2018-04-28T10:55:25.968Z,42.86
2018-04-28T10:57:51.593Z,42.38
2018-04-28T11:00:17.155Z,43.99
2018-04-28T11:02:42.933Z,43.61
2018-04-28T11:05:08.479Z,44.29
2018-04-28T11:07:34.062Z,44.30
2018-04-28T11:09:59.770Z,44.47
2018-04-28T11:12:25.430Z,44.61
2018-04-28T11:14:51.166Z,44.93
2018-04-28T11:17:16.814Z,44.67
2018-04-28T11:19:42.610Z,44.26
2018-04-28T11:22:08.415Z,43.30
2018-04-28T11:24:34.050Z,42.93
2018-04-28T11:26:59.612Z,44.33
2018-04-28T11:29:25.394Z,44.23
2018-04-28T11:31:51.004Z,44.34
2018-04-28T11:34:16.835Z,44.73
2018-04-28T11:36:42.429Z,44.65
2018-04-28T11:39:07.987Z,44.38
2018-04-28T11:41:33.673Z,43.55
2018-04-28T11:43:59.381Z,42.37
2018-04-28T11:46:25.016Z,43.46
2018-04-28T11:48:50.887Z,43.08
2018-04-28T11:51:16.479Z,41.75
2018-04-28T11:53:42.063Z,41.17
2018-04-28T11:56:08.125Z,40.44
2018-04-28T11:58:34.072Z,40.58
2018-04-28T12:04:28.745Z,40.25
2018-04-28T12:06:54.366Z,41.53
2018-04-28T12:09:20.030Z,40.85
2018-04-28T12:11:45.781Z,40.09
2018-04-28T12:14:11.480Z,40.44
2018-04-28T12:16:37.031Z,40.41
2018-04-28T12:19:02.723Z,40.54
2018-04-28T12:21:28.300Z,41.04
2018-04-28T12:23:53.941Z,41.39
2018-04-28T12:26:19.710Z,41.90
2018-04-28T12:28:45.345Z,42.12
2018-04-28T12:31:10.863Z,41.36
2018-04-28T12:33:36.595Z,41.07
2018-04-28T12:36:02.190Z,40.82
2018-04-28T12:38:27.764Z,41.76
2018-04-28T12:40:53.455Z,41.05
2018-04-28T12:43:19.076Z,40.78
2018-04-28T12:45:44.746Z,41.87
2018-04-28T12:48:10.468Z,41.82
2018-04-28T12:50:36.182Z,41.76
2018-04-28T12:53:01.705Z,41.62
2018-04-28T12:55:27.426Z,41.26
2018-04-28T12:57:53.004Z,41.50
2018-04-28T13:00:18.729Z,41.13
2018-04-28T13:02:44.482Z,41.05
2018-04-28T13:05:10.093Z,41.00
2018-04-28T13:07:35.676Z,40.55
2018-04-28T13:10:01.647Z,40.74
2018-04-28T13:12:27.245Z,40.10
2018-04-28T13:14:53.008Z,39.41
2018-04-28T13:17:18.793Z,39.08
2018-04-28T13:19:44.355Z,38.73
2018-04-28T13:22:09.935Z,39.26
2018-04-28T13:24:36.676Z,39.30
2018-04-28T13:27:02.331Z,38.73
2018-04-28T13:29:27.894Z,38.97
2018-04-28T13:31:53.705Z,38.66
2018-04-28T13:34:19.497Z,38.99
2018-04-28T13:36:45.065Z,37.70
2018-04-28T13:39:10.813Z,37.53
2018-04-28T13:41:36.467Z,38.11
2018-04-28T13:44:02.190Z,37.14
2018-04-28T13:46:28.011Z,36.55
2018-04-28T13:48:53.569Z,36.66
2018-04-28T13:51:19.205Z,36.17
2018-04-28T13:53:44.995Z,35.55
2018-04-28T13:56:10.710Z,35.75
2018-04-28T13:58:36.292Z,34.91
2018-04-28T14:01:01.986Z,34.64
2018-04-28T14:03:27.566Z,34.56
2018-04-28T14:05:53.187Z,33.26
2018-04-28T14:08:19.039Z,31.45
2018-04-28T14:10:44.626Z,30.88
2018-04-28T14:13:10.185Z,28.96
2018-04-28T14:15:35.932Z,29.79
2018-04-28T14:18:01.509Z,30.39
2018-04-28T14:20:27.258Z,30.87
2018-04-28T14:22:52.881Z,31.28
2018-04-28T14:25:18.505Z,30.41
2018-04-28T14:27:44.223Z,30.95
2018-04-28T14:30:09.852Z,30.34
2018-04-28T14:32:35.479Z,30.03
2018-04-28T14:35:01.357Z,30.26
2018-04-28T14:37:27.102Z,29.88
2018-04-28T14:39:52.664Z,29.27
2018-04-28T14:42:18.434Z,29.12
2018-04-28T14:44:44.079Z,28.41
2018-04-28T14:47:09.939Z,28.52
2018-04-28T14:49:35.679Z,28.42
2018-04-28T14:52:01.449Z,27.77
2018-04-28T14:54:27.265Z,27.08
2018-04-28T14:56:52.913Z,28.60
2018-04-28T14:59:18.493Z,27.13
2018-04-28T15:01:44.575Z,26.94
2018-04-28T15:04:10.421Z,26.20
2018-04-28T15:06:36.035Z,26.49
2018-04-28T15:09:01.591Z,27.67
2018-04-28T15:11:27.362Z,26.93
2018-04-28T15:13:53.102Z,27.25
2018-04-28T15:16:18.786Z,27.42
2018-04-28T15:18:44.672Z,26.71
2018-04-28T15:21:10.230Z,27.55
2018-04-28T15:23:35.799Z,27.64
2018-04-28T15:26:01.510Z,28.02
2018-04-28T15:28:27.105Z,28.03
2018-04-28T15:30:52.736Z,27.22
2018-04-28T15:33:18.645Z,26.80
2018-04-28T15:35:44.204Z,26.82
2018-04-28T15:38:09.783Z,27.05
2018-04-28T15:40:35.590Z,27.72
2018-04-28T15:43:01.170Z,26.21
2018-04-28T15:45:26.945Z,26.15
2018-04-28T15:47:52.732Z,26.53
2018-04-28T15:50:18.377Z,26.16
2018-04-28T15:52:43.971Z,24.84
2018-04-28T15:55:09.777Z,24.89
2018-04-28T15:57:35.437Z,27.17
2018-04-28T16:00:01.049Z,26.80
2018-04-28T16:02:26.783Z,26.94
2018-04-28T16:04:52.387Z,27.37
2018-04-28T16:07:18.028Z,27.74
2018-04-28T16:09:43.839Z,27.86
2018-04-28T16:12:09.422Z,28.39
2018-04-28T16:14:35.260Z,28.18
2018-04-28T16:17:01.081Z,28.68
2018-04-28T16:19:26.902Z,28.46
2018-04-28T16:21:52.548Z,28.95
2018-04-28T16:24:18.153Z,29.20
2018-04-28T16:26:44.113Z,29.66
2018-04-28T16:29:10.022Z,29.75
2018-04-28T16:31:35.666Z,29.90
2018-04-28T16:34:01.520Z,30.12
2018-04-28T16:36:27.139Z,29.52
2018-04-28T16:38:52.720Z,29.69
2018-04-28T16:41:18.864Z,29.19
2018-04-28T16:43:44.504Z,29.78
2018-04-28T16:46:10.129Z,30.34
2018-04-28T16:48:36.114Z,29.73
2018-04-28T16:51:02.017Z,30.42
2018-04-28T16:53:27.587Z,30.23
2018-04-28T16:55:53.219Z,29.98
2018-04-28T16:58:19.119Z,30.11
2018-04-28T17:00:44.849Z,30.33
2018-04-28T17:03:10.450Z,30.87
2018-04-28T17:05:36.365Z,30.62
2018-04-28T17:08:01.940Z,30.55
2018-04-28T17:10:27.498Z,30.28
2018-04-28T17:12:53.592Z,29.75
2018-04-28T17:15:19.193Z,29.54
2018-04-28T17:17:54.096Z,29.48
2018-04-28T17:20:20.923Z,29.69
2018-04-28T17:22:46.653Z,29.75
2018-04-28T17:25:12.315Z,30.06
2018-04-28T17:27:37.940Z,29.89
2018-04-28T17:30:04.086Z,30.16
2018-04-28T17:32:29.706Z,30.35
2018-04-28T17:34:55.315Z,30.49
2018-04-28T17:37:21.028Z,31.22
2018-04-28T17:39:47.540Z,30.50
2018-04-28T17:42:13.227Z,30.47
2018-04-28T17:44:38.912Z,30.98
2018-04-28T17:47:04.482Z,31.39
2018-04-28T17:49:30.292Z,31.92
2018-04-28T17:51:56.080Z,32.19
2018-04-28T17:54:21.941Z,32.28
2018-04-28T17:56:47.758Z,32.23
2018-04-28T17:59:13.576Z,32.37
2018-04-28T18:01:39.145Z,32.32
2018-04-28T18:04:04.776Z,32.62
2018-04-28T18:06:30.480Z,32.58
2018-04-28T18:08:56.104Z,32.76
2018-04-28T18:11:21.791Z,33.15
2018-04-28T18:13:47.602Z,33.37
2018-04-28T18:16:13.173Z,33.15
2018-04-28T18:18:38.781Z,32.93
2018-04-28T18:21:04.626Z,33.68
2018-04-28T18:23:30.254Z,33.74
2018-04-28T18:25:55.999Z,33.70
2018-04-28T18:28:21.701Z,34.03
2018-04-28T18:30:48.160Z,33.97
2018-04-28T18:33:13.831Z,34.31
2018-04-28T18:35:39.607Z,34.60
2018-04-28T18:38:05.166Z,34.42
2018-04-28T18:40:31.488Z,34.80
2018-04-28T18:42:57.020Z,34.33
2018-04-28T18:45:22.633Z,34.29
2018-04-28T18:47:48.623Z,34.29
2018-04-28T18:50:14.375Z,34.43
2018-04-28T18:52:40.154Z,34.32
2018-04-28T18:55:06.121Z,34.14
2018-04-28T18:57:31.736Z,34.43
2018-04-28T18:59:57.346Z,34.95
2018-04-28T19:02:26.800Z,34.90
2018-04-28T19:04:52.435Z,34.97
2018-04-28T19:07:18.355Z,36.17
2018-04-28T19:09:43.972Z,38.02
2018-04-28T19:12:09.644Z,39.18
2018-04-28T19:14:35.537Z,39.66
2018-04-28T19:17:01.175Z,40.78
2018-04-28T19:19:26.925Z,40.57
2018-04-28T19:21:52.568Z,40.71
2018-04-28T19:24:18.463Z,41.28
2018-04-28T19:26:44.074Z,41.23
2018-04-28T19:29:09.875Z,41.09
2018-04-28T19:31:35.479Z,40.89
2018-04-28T19:34:01.056Z,40.88
2018-04-28T19:36:26.913Z,40.61
2018-04-28T19:38:52.524Z,41.28
2018-04-28T19:41:18.123Z,41.33
2018-04-28T19:43:44.493Z,41.49
2018-04-28T19:46:10.067Z,41.85
2018-04-28T19:48:35.772Z,41.67
2018-04-28T19:51:01.481Z,41.83
2018-04-28T19:53:27.039Z,41.49
2018-04-28T19:55:52.608Z,41.61
2018-04-28T19:58:18.396Z,41.61
2018-04-28T20:00:43.945Z,41.51
2018-04-28T20:03:09.595Z,42.29
2018-04-28T20:05:35.405Z,43.09
2018-04-28T20:08:01.027Z,44.41
2018-04-28T20:10:26.750Z,45.33
2018-04-28T20:12:52.616Z,47.33
2018-04-28T20:15:18.233Z,48.05
2018-04-28T20:17:43.815Z,49.59
2018-04-28T20:20:09.621Z,48.95
2018-04-28T20:23:12.653Z,49.30
2018-04-28T20:25:38.471Z,48.66
2018-04-28T20:28:04.278Z,48.49
2018-04-28T20:30:29.840Z,48.79
2018-04-28T20:32:56.122Z,47.70
2018-04-28T20:35:21.770Z,48.16
2018-04-28T20:37:47.362Z,48.99
2018-04-28T20:40:13.141Z,48.89
2018-04-28T20:42:38.760Z,47.56
2018-04-28T20:45:04.538Z,48.15
2018-04-28T20:47:30.108Z,48.43
2018-04-28T20:49:55.723Z,48.06
2018-04-28T20:52:21.487Z,48.66
2018-04-28T20:54:49.098Z,49.09
2018-04-28T20:57:14.942Z,49.00
2018-04-28T20:59:40.783Z,48.83
2018-04-28T21:02:06.340Z,48.44
2018-04-28T21:04:31.921Z,48.38
2018-04-28T21:06:57.801Z,48.60
2018-04-28T21:09:23.403Z,49.57
2018-04-28T21:11:49.027Z,49.59
2018-04-28T21:14:14.782Z,48.96
2018-04-28T21:16:40.425Z,49.06
2018-04-28T21:19:06.074Z,51.01
2018-04-28T21:21:32.165Z,52.99
2018-04-28T21:23:57.737Z,52.53
2018-04-28T21:26:23.297Z,53.38
2018-04-28T21:28:49.228Z,52.47
2018-04-28T21:31:14.916Z,53.75
2018-04-28T21:33:40.477Z,55.21
2018-04-28T21:36:06.241Z,55.82
2018-04-28T21:38:31.798Z,59.06
2018-04-28T21:40:57.440Z,63.25
2018-04-28T21:43:23.257Z,67.35
2018-04-28T21:45:48.842Z,70.23
2018-04-28T21:48:14.536Z,72.78
2018-04-28T21:50:40.264Z,73.15
2018-04-28T21:53:05.967Z,73.25
2018-04-28T21:55:31.547Z,72.38
2018-04-28T21:57:57.437Z,75.67
2018-04-28T22:00:23.186Z,77.12
2018-04-28T22:02:49.279Z,78.49
2018-04-28T22:05:15.114Z,79.50
2018-04-28T22:07:41.240Z,78.75
2018-04-28T22:10:06.853Z,78.73
2018-04-28T22:12:32.422Z,79.90
2018-04-28T22:14:58.199Z,80.50
2018-04-28T22:17:23.840Z,80.08
2018-04-28T22:19:49.846Z,79.05
2018-04-28T22:22:15.580Z,79.80
2018-04-28T22:24:41.509Z,80.55
2018-04-28T22:27:07.080Z,80.59
2018-04-28T22:29:32.811Z,80.58
2018-04-28T22:31:58.443Z,81.45
2018-04-28T22:34:24.616Z,82.98
2018-04-28T22:36:51.043Z,82.25
2018-04-28T22:39:17.354Z,82.06
2018-04-28T22:41:43.585Z,82.41
2018-04-28T22:44:09.432Z,82.92
2018-04-28T22:46:35.003Z,82.29
2018-04-28T22:49:00.583Z,82.12
2018-04-28T22:51:26.301Z,82.16
2018-04-28T22:53:52.006Z,80.79
2018-04-28T22:56:17.721Z,81.46
2018-04-28T22:58:43.473Z,81.22
2018-04-28T23:01:09.029Z,81.15
2018-04-28T23:03:34.609Z,80.75
2018-04-28T23:06:00.376Z,81.02
2018-04-28T23:08:26.073Z,82.39
2018-04-28T23:10:51.867Z,81.14
2018-04-28T23:13:17.632Z,79.31
2018-04-28T23:15:43.196Z,80.40
2018-04-28T23:18:08.812Z,81.53
